Flight Track Log - Related Links

Times and Time Zones

All times are in EDT time to prevent confusion due to time zone crossing. See the N569SC flight status page for this flight to view local times or setup timezone preferences in your user account.


Time Position Orientation Groundspeed Altitude Reporting Facility
EDT Latitude Longitude Course Direction KTS MPH feet Rate Location/Type
Wed 11:58:51 AM 42.6622 -83.4492 272° West 218 251 1,900  Level Cleveland Center
Wed 11:59:40 AM 42.6642 -83.5283 272° West 286 329 4,800 3,517 Climbing Cleveland Center
Wed 12:00:47 PM 42.7375 -83.5175 North 306 352 8,700 3,585 Climbing Cleveland Center
Wed 12:01:02 PM 42.7531 -83.4758 63° Northeast 312 359 9,700 1,840 Climbing Cleveland Center
Wed 12:02:02 PM 42.7764 -83.3808 71° East 338 389 11,000 2,450 Climbing Cleveland Center
Wed 12:03:02 PM 42.7436 -83.2661 111° Southeast 301 346 14,600 3,650 Climbing Cleveland Center
Wed 12:04:02 PM 42.6667 -83.2544 174° South 242 278 18,300 3,550 Climbing Cleveland Center
Wed 12:05:02 PM 42.5956 -83.2656 187° South 227 261 21,700 3,100 Climbing Cleveland Center
Wed 12:06:02 PM 42.5289 -83.2711 184° South 232 267 24,500 2,400 Climbing Cleveland Center
Wed 12:07:02 PM 42.4619 -83.2767 184° South 238 274 26,500 1,800 Climbing Cleveland Center
Wed 12:08:02 PM 42.3889 -83.2819 183° South 258 297 28,100 1,700 Climbing Cleveland Center
Wed 12:09:02 PM 42.3033 -83.2925 185° South 287 330 29,900 1,800 Climbing Cleveland Center
Wed 12:10:02 PM 42.2133 -83.2969 182° South 298 343 31,700 1,867 Climbing Cleveland Center
Wed 12:12:02 PM 42.0442 -83.3122 184° South 311 358 35,500 1,933 Climbing Cleveland Center
Wed 12:13:02 PM 41.9647 -83.3200 184° South 305 351 37,500 1,800 Climbing Cleveland Center
Wed 12:14:02 PM 41.8856 -83.3250 183° South 292 336 39,100 1,300 Climbing Cleveland Center
Wed 12:15:02 PM 41.8081 -83.3328 184° South 292 336 40,100 750 Climbing Cleveland Center
Wed 12:16:02 PM 41.7225 -83.3375 182° South 297 342 40,600 550 Climbing Cleveland Center
Wed 12:17:02 PM 41.6308 -83.3392 181° South 312 359 41,200 550 Climbing Cleveland Center
Wed 12:18:02 PM 41.5372 -83.3294 176° South 327 376 41,700 550 Climbing Cleveland Center
Wed 12:19:02 PM 41.4394 -83.3225 177° South 348 400 42,300 500 Climbing Cleveland Center
Wed 12:20:02 PM 41.3417 -83.3103 175° South 354 407 42,700 350 Climbing Cleveland Center
Wed 12:21:02 PM 41.2417 -83.3061 178° South 354 407 43,000 150 Climbing Cleveland Center
Wed 12:22:02 PM 41.1378 -83.2933 175° South 366 421 43,000  Level Cleveland Center
Wed 12:23:02 PM 41.0358 -83.2808 175° South 366 421 43,000  Level Cleveland Center
Wed 12:24:59 PM 40.8272 -83.2625 176° South 396 456 43,000  Level Indianapolis Center
Wed 12:26:00 PM 40.7169 -83.2517 176° South 404 465 43,000  Level Indianapolis Center
Wed 12:27:02 PM 40.6022 -83.2414 176° South 409 471 43,000  Level Indianapolis Center
Wed 12:28:03 PM 40.4881 -83.2311 176° South 408 470 43,000  Level Indianapolis Center
Wed 12:29:05 PM 40.3742 -83.2217 176° South 406 467 43,000  Level Indianapolis Center
Wed 12:30:06 PM 40.2608 -83.2114 176° South 405 466 43,000  Level Indianapolis Center
Wed 12:31:08 PM 40.1283 -83.1986 176° South 404 465 43,000  Level Indianapolis Center
Wed 12:32:09 PM 40.0144 -83.1892 176° South 404 465 43,000  Level Indianapolis Center
Wed 12:33:11 PM 39.9000 -83.1783 176° South 404 465 43,000  Level Indianapolis Center
Wed 12:34:13 PM 39.7844 -83.1683 176° South 406 467 43,000  Level Indianapolis Center
Wed 12:35:14 PM 39.6692 -83.1578 176° South 407 468 43,000  Level Indianapolis Center
Wed 12:36:16 PM 39.5544 -83.1483 176° South 407 468 43,000  Level Indianapolis Center
Wed 12:37:17 PM 39.4389 -83.1383 176° South 410 472 43,000  Level Indianapolis Center
Wed 12:38:19 PM 39.3250 -83.1272 176° South 408 470 43,000  Level Indianapolis Center
Wed 12:39:20 PM 39.2108 -83.1175 176° South 407 468 43,000  Level Indianapolis Center
Wed 12:40:22 PM 39.0981 -83.1078 176° South 404 465 43,000  Level Indianapolis Center
Wed 12:41:24 PM 38.9839 -83.0969 176° South 410 472 43,000  Level Indianapolis Center
Wed 12:42:25 PM 38.8717 -83.0869 176° South 406 467 43,000  Level Indianapolis Center
Wed 12:43:27 PM 38.7583 -83.0783 177° South 407 468 43,000  Level Indianapolis Center
Wed 12:44:28 PM 38.6303 -83.0675 176° South 412 474 43,000  Level Indianapolis Center
Wed 12:45:30 PM 38.5158 -83.0575 176° South 411 473 43,000  Level Indianapolis Center
Wed 12:46:32 PM 38.4011 -83.0478 176° South 411 473 43,000  Level Indianapolis Center
Wed 12:47:33 PM 38.2664 -83.0367 176° South 414 476 43,000  Level Indianapolis Center
Wed 12:48:35 PM 38.1519 -83.0253 176° South 414 476 43,000  Level Indianapolis Center
Wed 12:49:37 PM 38.0375 -83.0175 177° South 410 472 43,000  Level Indianapolis Center
Wed 12:50:38 PM 37.9222 -83.0083 176° South 414 476 43,000  Level Indianapolis Center
Wed 12:51:40 PM 37.8061 -82.9972 176° South 415 478 43,000  Level Indianapolis Center
Wed 12:52:42 PM 37.6897 -82.9889 177° South 417 480 43,000  Level Indianapolis Center
Wed 12:53:43 PM 37.5731 -82.9786 176° South 418 481 43,000  Level Indianapolis Center
Wed 12:54:45 PM 37.4364 -82.9678 176° South 421 484 43,000  Level Indianapolis Center
Wed 12:55:47 PM 37.3189 -82.9572 176° South 422 486 43,000  Level Indianapolis Center
Wed 12:56:49 PM 37.2017 -82.9472 176° South 421 484 43,000  Level Indianapolis Center
Wed 12:57:50 PM 37.0844 -82.9375 176° South 421 484 43,000  Level Indianapolis Center
Wed 12:58:52 PM 36.9569 -82.9267 176° South 424 488 43,000  Level Indianapolis Center
Wed 12:59:54 PM 36.8364 -82.9153 176° South 431 496 43,000  Level Indianapolis Center
Wed 01:01:05 PM 36.6850 -82.9050 177° South 442 509 43,000  Level Atlanta Center
Wed 01:02:05 PM 36.5681 -82.8964 177° South 437 503 43,000  Level Atlanta Center
Wed 01:03:05 PM 36.4492 -82.8850 176° South 431 496 43,000  Level Atlanta Center
Wed 01:04:05 PM 36.3322 -82.8764 177° South 426 490 43,000  Level Atlanta Center
Wed 01:05:05 PM 36.2153 -82.8678 177° South 426 490 43,000  Level Atlanta Center
Wed 01:06:05 PM 36.0942 -82.8567 176° South 421 484 43,000  Level Atlanta Center
Wed 01:07:05 PM 35.9753 -82.8481 177° South 433 498 43,000  Level Atlanta Center
Wed 01:08:05 PM 35.8583 -82.8369 176° South 433 498 43,000  Level Atlanta Center
Wed 01:09:05 PM 35.7372 -82.8261 176° South 433 498 43,000  Level Atlanta Center
Wed 01:10:05 PM 35.6183 -82.8175 177° South 428 493 43,000  Level Atlanta Center
Wed 01:11:05 PM 35.4972 -82.8092 177° South 428 493 43,000  Level Atlanta Center
Wed 01:12:05 PM 35.3803 -82.8008 177° South 433 498 43,000  Level Atlanta Center
Wed 01:13:05 PM 35.2592 -82.7925 177° South 428 493 43,000  Level Atlanta Center
Wed 01:14:05 PM 35.1403 -82.7814 176° South 428 493 43,000  Level Atlanta Center
Wed 01:15:05 PM 35.0294 -82.7756 178° South 438 504 43,000  Level Atlanta Center
Wed 01:16:05 PM 34.9061 -82.7622 175° South 444 511 43,000  Level Atlanta Center
Wed 01:17:05 PM 34.7850 -82.7539 177° South 438 504 43,000  Level Atlanta Center
Wed 01:18:05 PM 34.6661 -82.7433 176° South 443 510 43,000  Level Atlanta Center
Wed 01:19:05 PM 34.5281 -82.7303 176° South 443 510 43,000  Level Atlanta Center
Wed 01:20:05 PM 34.4092 -82.7244 178° South 438 504 43,000  Level Atlanta Center
Wed 01:21:05 PM 34.2881 -82.7139 176° South 444 511 43,000  Level Atlanta Center
Wed 01:22:05 PM 34.1647 -82.7031 176° South 435 501 43,000  Level Atlanta Center
Wed 01:23:05 PM 34.0414 -82.6950 177° South 446 513 43,000  Level Atlanta Center
Wed 01:24:05 PM 33.9203 -82.6844 176° South 438 504 43,000  Level Atlanta Center
Wed 01:25:05 PM 33.7992 -82.6764 177° South 444 511 43,000  Level Atlanta Center
Wed 01:26:05 PM 33.6739 -82.6658 176° South 449 517 43,000  Level Atlanta Center
Wed 01:27:05 PM 33.5672 -82.6578 176° South 441 507 43,000  Level Atlanta Center
Wed 01:28:05 PM 33.4419 -82.6497 177° South 441 507 43,000  Level Atlanta Center
Wed 01:29:05 PM 33.3042 -82.6419 177° South 441 507 43,000  Level Atlanta Center
Wed 01:30:05 PM 33.1850 -82.6314 176° South 448 516 43,000  Level Atlanta Center
Wed 01:31:05 PM 33.0639 -82.6211 176° South 442 509 43,000  Level Atlanta Center
Wed 01:32:39 PM 32.8697 -82.6081 177° South 439 505 43,000  Level Jacksonville Center
Wed 01:33:39 PM 32.7528 -82.5986 176° South 439 505 43,000  Level Jacksonville Center
Wed 01:34:39 PM 32.6317 -82.5892 176° South 439 505 43,000  Level Jacksonville Center
Wed 01:35:39 PM 32.5106 -82.5797 176° South 439 505 43,000  Level Jacksonville Center
Wed 01:36:39 PM 32.4061 -82.5728 177° South 439 505 43,000  Level Jacksonville Center
Wed 01:37:39 PM 32.2850 -82.5633 176° South 439 505 43,000  Level Jacksonville Center
Wed 01:38:39 PM 32.1619 -82.5539 176° South 439 505 43,000  Level Jacksonville Center
Wed 01:39:39 PM 32.0408 -82.5419 175° South 439 505 43,000  Level Jacksonville Center
Wed 01:40:39 PM 31.9197 -82.5353 177° South 444 511 43,000  Level Jacksonville Center
Wed 01:41:39 PM 31.7964 -82.5258 176° South 444 511 43,000  Level Jacksonville Center
Wed 01:42:39 PM 31.6753 -82.5192 177° South 439 505 43,000  Level Jacksonville Center
Wed 01:43:39 PM 31.5522 -82.5075 175° South 445 512 43,000  Level Jacksonville Center
Wed 01:44:39 PM 31.4247 -82.5128 182° South 445 512 43,000  Level Jacksonville Center
Wed 01:45:39 PM 31.2869 -82.5231 184° South 450 518 43,000  Level Jacksonville Center
Wed 01:46:39 PM 31.1639 -82.5258 181° South 450 518 43,000 -450 Level Jacksonville Center
Wed 01:47:39 PM 31.0386 -82.5336 183° South 450 518 42,100 -1,050 Descending Jacksonville Center
Wed 01:48:39 PM 30.9111 -82.5392 182° South 455 524 40,900 -1,250 Descending Jacksonville Center
Wed 01:49:39 PM 30.7858 -82.5444 182° South 455 524 39,600 -1,300 Descending Jacksonville Center
Wed 01:50:39 PM 30.6647 -82.5472 181° South 455 524 38,300 -800 Descending Jacksonville Center
Wed 01:51:39 PM 30.5417 -82.5550 183° South 455 524 38,000 -150 Descending Jacksonville Center
Wed 01:52:39 PM 30.4183 -82.5242 168° South 450 518 38,000  Level Jacksonville Center
Wed 01:53:39 PM 30.3053 -82.4353 146° Southeast 450 518 38,000 -250 Level Jacksonville Center
Wed 01:54:39 PM 30.1944 -82.3447 145° Southeast 471 542 37,500 -500 Descending Jacksonville Center
Wed 01:55:39 PM 30.0875 -82.2419 140° Southeast 493 567 37,000 -250 Descending Jacksonville Center
Wed 01:56:39 PM 29.9722 -82.1636 150° Southeast 498 573 37,000 -300 Level Jacksonville Center
Wed 01:57:39 PM 29.8617 -82.1933 193° South 421 484 36,400 -1,950 Descending Jacksonville Center
Wed 01:58:39 PM 29.7617 -82.2489 206° Southwest 386 444 33,100 -3,600 Descending Jacksonville Center
Wed 01:59:39 PM 29.6578 -82.3142 209° Southwest 401 461 29,200 -3,000 Descending Jacksonville Center
Wed 02:00:39 PM 29.5492 -82.3531 197° South 428 493 27,100 -1,600 Descending Jacksonville Center
Wed 02:01:39 PM 29.4219 -82.3394 175° South 445 512 26,000 -1,550 Descending Jacksonville Center
Wed 02:02:39 PM 29.2925 -82.3258 175° South 450 518 24,000 -2,400 Descending Jacksonville Center
Wed 02:03:39 PM 29.1775 -82.3100 173° South 443 510 21,200 -2,650 Descending Jacksonville Center
Wed 02:04:39 PM 29.0689 -82.2964 174° South 413 475 18,700 -2,250 Descending Jacksonville Center
Wed 02:05:39 PM 28.9667 -82.2850 174° South 385 443 16,700 -2,050 Descending Jacksonville Center
Wed 02:06:39 PM 28.8789 -82.2761 175° South 352 405 14,600 -1,463 Descending Jacksonville Center
Wed 02:08:23 PM 28.7167 -82.2500 172° South 309 356 12,700 -1,215 Descending Tampa TRACON
Wed 02:09:17 PM 28.6500 -82.2500 180° South 297 342 11,400 -1,667 Descending Tampa TRACON
Wed 02:10:11 PM 28.5667 -82.2500 180° South 291 335 9,700 -1,842 Descending Tampa TRACON
Wed 02:11:11 PM 28.5000 -82.2500 180° South 281 323 7,900 -1,339 Descending Tampa TRACON
Wed 02:12:12 PM 28.4167 -82.2500 180° South 275 316 7,000 -429 Descending Tampa TRACON
Wed 02:13:17 PM 28.3333 -82.2667 190° South 276 318 7,000 -143 Level Tampa TRACON
Wed 02:14:18 PM 28.3000 -82.3333 240° Southwest 275 316 6,700 -843 Descending Tampa TRACON
Wed 02:15:18 PM 28.2833 -82.4167 257° West 276 318 5,300 -1,300 Descending Tampa TRACON
Wed 02:16:18 PM 28.2167 -82.4667 213° Southwest 276 318 4,100 -1,150 Descending Tampa TRACON
Wed 02:17:18 PM 28.1500 -82.5000 204° Southwest 253 291 3,000 -1,100 Descending Tampa TRACON

Login

Don't have an account? Register now (free) for customized features, flight alerts, and more!